Time;durP1;ratioP1;P1;durP2;ratioP2;P2;SDS_P1;SDS_P2;PMS_P1;PMS_P2;Temp;Humidity;BMP_temperature;BMP_pressure;BME280_temperature;BME280_humidity;BME280_pressure;Samples;Min_cycle;Max_cycle;Signal;HPM_P1;HPM_P2
2023/04/25 10:09:29;;;;;;;;;;;;;;;21.19;62.00;98813.66;5784249;22;1575;-57
2023/04/25 10:11:56;;;;;;;;;;;;;;;21.69;63.33;98808.88;5052173;28;813;-56
2023/04/25 10:14:24;;;;;;;;;;;;;;;21.96;63.79;98804.69;5052064;28;806;-56
2023/04/25 10:16:53;;;;;;;;;;;;;;;22.31;60.39;98800.72;5052030;28;873;-56
2023/04/25 10:19:23;;;;;;;;;;;;;;;22.81;60.38;98794.41;5052020;28;818;-56
2023/04/25 10:21:54;;;;;;;;;;;;;;;23.10;58.49;98795.94;5051997;28;814;-56
2023/04/25 10:24:21;;;;;;;;;;;;;;;22.65;58.90;98801.53;5051919;28;873;-57
2023/04/25 10:26:48;;;;;;;;;;;;;;;21.96;60.43;98790.59;5052083;28;2005;-56
2023/04/25 10:29:22;;;;;;;;;;;;;;;22.59;59.95;98790.25;5051858;28;846;-56
2023/04/25 10:31:49;;;;;;;;;;;;;;;23.42;57.09;98785.13;5051798;28;799;-56
2023/04/25 10:34:17;;;;;;;;;;;;;;;23.02;56.03;98783.66;5051768;28;784;-56
2023/04/25 10:36:50;;;;;;;;;;;;;;;22.84;56.76;98785.69;5051720;28;810;-56
2023/04/25 10:39:22;;;;;;;;;;;;;;;23.48;58.00;98784.38;5051820;28;896;-56
2023/04/25 10:41:56;;;;;;;;;;;;;;;23.15;56.36;98783.13;5033732;28;1201;-56
2023/04/25 10:44:22;;;;;;;;;;;;;;;23.30;56.52;98775.19;5051652;28;806;-56
2023/04/25 10:46:49;;;;;;;;;;;;;;;23.09;55.70;98773.94;5033766;28;1881;-56
2023/04/25 10:49:32;;;;;;;;;;;;;;;23.50;55.92;98774.09;5051657;28;822;-56
2023/04/25 10:52:14;;;;;;;;;;;;;;;23.97;52.62;98762.16;5051551;28;842;-56
2023/04/25 10:55:02;;;;;;;;;;;;;;;24.38;53.95;98758.59;5051558;28;866;-56
2023/04/25 10:57:30;;;;;;;;;;;;;;;24.61;53.61;98760.00;5051527;28;2098;-56
2023/04/25 11:00:09;;;;;;;;;;;;;;;24.86;51.48;98758.00;5051527;28;814;-56
2023/04/25 11:02:42;;;;;;;;;;;;;;;25.12;51.45;98756.75;5051381;28;918;-56
2023/04/25 11:05:10;;;;;;;;;;;;;;;25.82;50.89;98751.38;5050597;28;687;-56
2023/04/25 11:07:36;;;;;;;;;;;;;;;26.30;46.75;98748.19;5051355;28;1871;-56
2023/04/25 11:10:04;;;;;;;;;;;;;;;26.43;45.07;98749.00;5051404;28;1086;-56
2023/04/25 11:12:31;;;;;;;;;;;;;;;26.95;44.64;98738.41;5052234;28;818;-56
2023/04/25 11:15:02;;;;;;;;;;;;;;;27.15;43.04;98736.28;5051589;28;865;-55
2023/04/25 11:17:29;;;;;;;;;;;;;;;25.53;42.72;98746.59;5051258;28;897;-56
2023/04/25 11:19:56;;;;;;;;;;;;;;;25.22;43.86;98735.34;5051290;28;877;-56
2023/04/25 11:22:23;;;;;;;;;;;;;;;24.70;44.93;98725.00;5051275;28;834;-56
2023/04/25 11:24:50;;;;;;;;;;;;;;;24.05;45.12;98730.06;5051171;28;823;-56
2023/04/25 11:27:17;;;;;;;;;;;;;;;23.96;45.72;98724.72;5051342;28;1914;-56
2023/04/25 11:29:43;;;;;;;;;;;;;;;25.33;44.13;98714.66;5051154;28;895;-56
2023/04/25 11:32:10;;;;;;;;;;;;;;;26.12;43.33;98724.22;5052987;28;831;-56
2023/04/25 11:34:37;;;;;;;;;;;;;;;26.87;41.19;98720.53;5055132;28;806;-56
2023/04/25 11:37:04;;;;;;;;;;;;;;;26.18;40.74;98711.56;5055065;28;897;-56
2023/04/25 11:39:30;;;;;;;;;;;;;;;25.08;41.71;98721.59;5054963;28;868;-56
2023/04/25 11:41:57;;;;;;;;;;;;;;;25.27;42.11;98703.41;5055250;28;826;-56
2023/04/25 11:44:24;;;;;;;;;;;;;;;24.62;43.57;98707.09;5055024;28;858;-56
2023/04/25 11:46:51;;;;;;;;;;;;;;;24.21;44.32;98713.53;5054775;28;1890;-56
2023/04/25 11:49:18;;;;;;;;;;;;;;;24.29;45.23;98699.63;5055022;28;854;-57
2023/04/25 11:51:46;;;;;;;;;;;;;;;25.20;43.06;98695.53;5054940;28;866;-56
2023/04/25 11:54:13;;;;;;;;;;;;;;;25.18;43.41;98683.19;5053467;28;1283;-56
2023/04/25 11:56:43;;;;;;;;;;;;;;;24.59;44.39;98689.13;5054664;28;858;-56
2023/04/25 11:59:10;;;;;;;;;;;;;;;24.51;45.01;98676.13;5054727;28;924;-56
2023/04/25 12:01:39;;;;;;;;;;;;;;;24.15;45.26;98676.84;5054662;28;814;-56
2023/04/25 12:04:16;;;;;;;;;;;;;;;23.47;49.19;98667.22;5054587;28;934;-56
2023/04/25 12:06:44;;;;;;;;;;;;;;;22.83;53.40;98670.72;5054382;28;1893;-56
2023/04/25 12:09:12;;;;;;;;;;;;;;;22.35;55.16;98668.94;5054541;28;929;-56
2023/04/25 12:23:50;;;;;;;;;;;;;;;24.62;53.92;98659.06;5054547;28;589;-56
2023/04/25 12:26:20;;;;;;;;;;;;;;;25.14;50.72;98660.88;5054123;28;1910;-56
2023/04/25 12:28:47;;;;;;;;;;;;;;;24.06;52.12;98654.59;5054096;28;897;-57
2023/04/25 12:31:15;;;;;;;;;;;;;;;23.43;54.22;98651.34;5054036;28;807;-56
2023/04/25 12:33:43;;;;;;;;;;;;;;;22.87;54.96;98654.31;5054046;28;893;-57
2023/04/25 12:36:12;;;;;;;;;;;;;;;22.47;56.92;98650.78;5036226;28;1192;-56
2023/04/25 12:38:42;;;;;;;;;;;;;;;22.05;58.30;98643.31;5053921;28;842;-56
2023/04/25 12:41:09;;;;;;;;;;;;;;;21.68;59.40;98650.66;5053957;28;831;-56
2023/04/25 12:43:35;;;;;;;;;;;;;;;21.79;59.28;98639.44;5053876;28;846;-56
2023/04/25 12:46:01;;;;;;;;;;;;;;;21.59;58.42;98643.22;5053709;28;1949;-56
2023/04/25 12:48:28;;;;;;;;;;;;;;;21.41;59.57;98640.84;5053750;28;803;-56
2023/04/25 12:50:54;;;;;;;;;;;;;;;21.24;60.26;98649.19;5053645;28;897;-56
2023/04/25 12:53:22;;;;;;;;;;;;;;;20.98;61.74;98649.31;5053691;28;850;-56
2023/04/25 12:55:49;;;;;;;;;;;;;;;20.47;65.93;98646.16;5053535;28;898;-56
2023/04/25 12:58:17;;;;;;;;;;;;;;;19.95;70.34;98649.78;5053536;28;849;-56
2023/04/25 13:00:43;;;;;;;;;;;;;;;19.70;73.06;98650.53;5053520;28;815;-56
2023/04/25 13:03:10;;;;;;;;;;;;;;;19.36;73.84;98650.88;5053544;28;866;-56
2023/04/25 13:05:37;;;;;;;;;;;;;;;19.11;75.88;98654.38;5053321;28;861;-56
2023/04/25 13:08:04;;;;;;;;;;;;;;;18.82;77.71;98652.44;5053251;28;1973;-57
2023/04/25 13:10:33;;;;;;;;;;;;;;;18.48;80.68;98644.31;5053097;28;1268;-56
2023/04/25 13:13:00;;;;;;;;;;;;;;;18.23;84.70;98642.88;5053450;28;897;-56
2023/04/25 13:15:27;;;;;;;;;;;;;;;18.15;86.83;98639.69;5053240;28;819;-56
2023/04/25 13:17:53;;;;;;;;;;;;;;;17.54;98.07;98642.91;5053563;28;811;-58
2023/04/25 13:20:22;;;;;;;;;;;;;;;15.77;100.00;98637.81;5053110;28;868;-58
2023/04/25 13:22:49;;;;;;;;;;;;;;;14.56;100.00;98627.75;5053146;28;850;-59
2023/04/25 13:25:16;;;;;;;;;;;;;;;14.26;100.00;98616.19;5052996;28;849;-59
2023/04/25 13:27:44;;;;;;;;;;;;;;;14.22;100.00;98637.00;5052945;28;1918;-59
2023/04/25 13:30:10;;;;;;;;;;;;;;;14.09;100.00;98651.75;5052894;28;878;-61
2023/04/25 13:32:37;;;;;;;;;;;;;;;13.96;100.00;98672.53;5052955;28;838;-71
2023/04/25 13:35:05;;;;;;;;;;;;;;;13.93;100.00;98670.63;5034833;28;1150;-65
2023/04/25 13:37:32;;;;;;;;;;;;;;;13.65;100.00;98684.31;5052814;28;837;-63
2023/04/25 13:40:04;;;;;;;;;;;;;;;13.29;100.00;98682.75;5052872;28;799;-64
2023/04/25 13:42:32;;;;;;;;;;;;;;;13.00;100.00;98671.84;5034848;28;1177;-65
2023/04/25 13:44:59;;;;;;;;;;;;;;;12.59;100.00;98684.63;5052643;28;834;-64
2023/04/25 13:47:26;;;;;;;;;;;;;;;11.87;100.00;98686.69;5052576;28;1890;-61
2023/04/25 13:49:54;;;;;;;;;;;;;;;11.58;100.00;98686.69;5051586;28;1219;-61
2023/04/25 13:52:20;;;;;;;;;;;;;;;11.49;100.00;98679.00;5052529;28;798;-62
2023/04/25 13:54:47;;;;;;;;;;;;;;;11.61;100.00;98681.06;5034137;28;1261;-62
2023/04/25 13:57:13;;;;;;;;;;;;;;;11.92;100.00;98677.09;5052465;28;829;-62
2023/04/25 13:59:41;;;;;;;;;;;;;;;12.30;100.00;98659.78;5052686;28;869;-61
2023/04/25 14:02:08;;;;;;;;;;;;;;;12.33;100.00;98659.66;5052319;28;838;-60
2023/04/25 14:04:36;;;;;;;;;;;;;;;12.49;100.00;98661.56;5052225;28;814;-61
2023/04/25 14:07:03;;;;;;;;;;;;;;;12.64;100.00;98662.66;5052151;28;1917;-60
2023/04/25 14:09:30;;;;;;;;;;;;;;;12.81;100.00;98665.31;5052379;28;984;-60
2023/04/25 14:11:58;;;;;;;;;;;;;;;13.08;100.00;98667.59;5032568;28;845;-59
2023/04/25 14:14:25;;;;;;;;;;;;;;;13.44;100.00;98678.31;5032249;28;842;-58
2023/04/25 14:16:53;;;;;;;;;;;;;;;13.82;100.00;98682.13;5032215;28;843;-58
2023/04/25 14:19:21;;;;;;;;;;;;;;;14.12;100.00;98680.63;5032138;28;865;-59
2023/04/25 14:21:48;;;;;;;;;;;;;;;14.27;100.00;98672.53;5031837;28;885;-58
2023/04/25 14:24:15;;;;;;;;;;;;;;;14.36;100.00;98672.59;5032268;28;870;-58
2023/04/25 14:26:43;;;;;;;;;;;;;;;14.41;100.00;98676.78;5031995;28;1914;-58
2023/04/25 14:29:11;;;;;;;;;;;;;;;14.37;100.00;98678.94;5031978;28;795;-59
2023/04/25 14:34:40;;;;;;;;;;;;;;;14.26;100.00;98684.91;5031629;28;1382;-59
2023/04/25 14:37:07;;;;;;;;;;;;;;;14.16;100.00;98688.84;5031838;28;858;-58
2023/04/25 14:39:34;;;;;;;;;;;;;;;14.11;100.00;98686.66;5031850;28;845;-58
2023/04/25 14:42:01;;;;;;;;;;;;;;;14.12;100.00;98677.84;5032087;28;826;-58
2023/04/25 14:44:27;;;;;;;;;;;;;;;14.18;100.00;98673.25;5031715;28;874;-58
2023/04/25 14:46:54;;;;;;;;;;;;;;;14.25;100.00;98673.00;5031640;28;1893;-57
2023/04/25 14:49:21;;;;;;;;;;;;;;;14.28;100.00;98674.88;5031652;28;850;-57
2023/04/25 14:51:48;;;;;;;;;;;;;;;14.35;100.00;98670.28;5031712;28;904;-55
2023/04/25 14:54:14;;;;;;;;;;;;;;;14.33;100.00;98665.16;5031517;28;807;-55
2023/04/25 14:56:41;;;;;;;;;;;;;;;14.34;100.00;98666.72;5031645;28;894;-54
2023/04/25 14:59:07;;;;;;;;;;;;;;;14.29;100.00;98672.84;5013812;28;1307;-53
2023/04/25 15:01:34;;;;;;;;;;;;;;;14.21;100.00;98669.59;5031537;28;852;-54
2023/04/25 15:04:03;;;;;;;;;;;;;;;14.20;100.00;98672.81;5031449;28;847;-54
2023/04/25 15:06:30;;;;;;;;;;;;;;;14.20;100.00;98667.25;5013487;28;1957;-54
2023/04/25 15:08:57;;;;;;;;;;;;;;;14.18;100.00;98669.72;5031580;28;874;-54
2023/04/25 15:11:24;;;;;;;;;;;;;;;14.14;100.00;98674.63;5046678;28;1238;-50
2023/04/25 15:13:51;;;;;;;;;;;;;;;14.11;100.00;98693.00;5051413;28;854;-52
2023/04/25 15:16:17;;;;;;;;;;;;;;;13.95;100.00;98698.72;5049981;28;1298;-53
2023/04/25 15:18:44;;;;;;;;;;;;;;;13.78;100.00;98695.38;5051290;28;834;-54
2023/04/25 15:21:10;;;;;;;;;;;;;;;13.66;100.00;98708.09;5051231;28;799;-54
2023/04/25 15:23:37;;;;;;;;;;;;;;;13.42;100.00;98705.72;5051118;28;931;-56
2023/04/25 15:26:04;;;;;;;;;;;;;;;13.26;100.00;98703.84;5051102;28;1975;-55
2023/04/25 15:28:33;;;;;;;;;;;;;;;13.27;100.00;98699.06;5051179;28;917;-55
2023/04/25 15:31:00;;;;;;;;;;;;;;;13.36;100.00;98701.19;5051096;28;861;-54
2023/04/25 15:33:27;;;;;;;;;;;;;;;13.23;100.00;98690.88;5051077;28;795;-55
2023/04/25 15:35:54;;;;;;;;;;;;;;;13.25;100.00;98696.75;5051080;28;893;-54
2023/04/25 15:38:21;;;;;;;;;;;;;;;13.23;100.00;98698.44;5051096;28;825;-55
2023/04/25 15:40:47;;;;;;;;;;;;;;;13.24;100.00;98697.19;5051087;28;802;-55
2023/04/25 15:43:15;;;;;;;;;;;;;;;13.23;100.00;98693.66;5050988;28;829;-56
2023/04/25 15:45:42;;;;;;;;;;;;;;;13.27;100.00;98690.72;5051091;28;858;-56
2023/04/25 15:48:09;;;;;;;;;;;;;;;13.32;100.00;98683.88;5050923;28;1886;-56
2023/04/25 15:50:36;;;;;;;;;;;;;;;13.26;100.00;98691.97;5051074;28;825;-56
2023/04/25 15:53:03;;;;;;;;;;;;;;;13.23;100.00;98679.78;5051032;28;822;-56
2023/04/25 15:55:30;;;;;;;;;;;;;;;13.34;100.00;98681.44;5050945;28;847;-56
2023/04/25 15:57:57;;;;;;;;;;;;;;;13.36;100.00;98682.53;5050879;28;911;-56
2023/04/25 16:00:24;;;;;;;;;;;;;;;13.23;100.00;98682.53;5051135;28;877;-56
2023/04/25 16:02:51;;;;;;;;;;;;;;;13.11;100.00;98679.81;5050794;28;913;-56
2023/04/25 16:05:18;;;;;;;;;;;;;;;13.03;100.00;98680.03;5050848;28;845;-56
2023/04/25 16:07:45;;;;;;;;;;;;;;;12.92;100.00;98673.28;5050706;28;1952;-56
2023/04/25 16:10:13;;;;;;;;;;;;;;;12.86;100.00;98673.06;5050869;28;1130;-56
2023/04/25 16:12:40;;;;;;;;;;;;;;;12.79;100.00;98667.75;5050777;28;847;-56
2023/04/25 16:15:07;;;;;;;;;;;;;;;12.77;100.00;98675.72;5050752;28;901;-56
2023/04/25 16:17:34;;;;;;;;;;;;;;;12.74;100.00;98676.59;5051494;28;803;-56
2023/04/25 16:20:05;;;;;;;;;;;;;;;12.70;100.00;98676.75;5054435;28;849;-56
2023/04/25 16:22:32;;;;;;;;;;;;;;;12.68;100.00;98672.88;5054253;28;854;-56
2023/04/25 16:24:59;;;;;;;;;;;;;;;12.65;100.00;98669.75;5054265;28;802;-56
2023/04/25 16:27:25;;;;;;;;;;;;;;;12.62;100.00;98678.19;5053992;28;1963;-56
2023/04/25 16:29:52;;;;;;;;;;;;;;;12.62;100.00;98678.94;5054458;28;862;-57
2023/04/25 16:32:18;;;;;;;;;;;;;;;12.57;100.00;98684.28;5053943;28;822;-57
2023/04/25 16:34:45;;;;;;;;;;;;;;;12.53;100.00;98678.06;5054139;28;802;-57
2023/04/25 16:37:12;;;;;;;;;;;;;;;12.44;100.00;98682.28;5054147;28;889;-57
2023/04/25 16:39:38;;;;;;;;;;;;;;;12.37;100.00;98676.94;5053919;28;827;-56
2023/04/25 16:42:05;;;;;;;;;;;;;;;12.33;100.00;98689.34;5054131;28;863;-56
2023/04/25 16:44:32;;;;;;;;;;;;;;;12.34;100.00;98677.06;5053838;28;861;-56
2023/04/25 16:46:59;;;;;;;;;;;;;;;12.32;100.00;98668.41;5053784;28;1890;-56
2023/04/25 16:49:25;;;;;;;;;;;;;;;12.31;100.00;98678.72;5053722;28;803;-56
2023/04/25 16:51:51;;;;;;;;;;;;;;;12.30;100.00;98677.16;5053692;28;826;-57
2023/04/25 16:54:18;;;;;;;;;;;;;;;12.36;100.00;98669.84;5035734;28;1300;-57
2023/04/25 16:56:45;;;;;;;;;;;;;;;12.46;100.00;98676.31;5053589;28;806;-57
2023/04/25 16:59:11;;;;;;;;;;;;;;;12.57;100.00;98698.16;5053629;28;815;-56
2023/04/25 17:01:38;;;;;;;;;;;;;;;12.68;100.00;98706.91;5053481;28;810;-57
2023/04/25 17:04:05;;;;;;;;;;;;;;;12.75;100.00;98717.75;5053444;28;856;-56
2023/04/25 17:06:32;;;;;;;;;;;;;;;12.76;100.00;98721.31;5053380;28;1890;-56
2023/04/25 17:08:58;;;;;;;;;;;;;;;12.79;100.00;98762.03;5053673;28;970;-56
2023/04/25 17:11:25;;;;;;;;;;;;;;;12.77;100.00;98773.53;5053159;28;1425;-56
2023/04/25 17:13:52;;;;;;;;;;;;;;;12.77;100.00;98787.41;5053284;28;830;-56
2023/04/25 17:16:21;;;;;;;;;;;;;;;12.75;100.00;98781.53;5035331;28;1476;-56
2023/04/25 17:18:51;;;;;;;;;;;;;;;12.73;100.00;98780.44;5053176;28;819;-58
2023/04/25 17:21:18;;;;;;;;;;;;;;;12.64;100.00;98784.63;5053155;28;873;-57
2023/04/25 17:23:45;;;;;;;;;;;;;;;12.58;100.00;98789.16;5053080;28;873;-57
2023/04/25 17:26:13;;;;;;;;;;;;;;;12.57;100.00;98795.16;5052949;28;1977;-57
2023/04/25 17:28:40;;;;;;;;;;;;;;;12.58;100.00;98791.16;5052805;28;814;-57
2023/04/25 17:31:08;;;;;;;;;;;;;;;12.54;100.00;98798.78;5052472;28;858;-57
2023/04/25 17:33:34;;;;;;;;;;;;;;;12.53;100.00;98806.34;5052893;28;830;-57
2023/04/25 17:36:03;;;;;;;;;;;;;;;12.54;100.00;98809.88;5052882;28;814;-57
2023/04/25 17:38:30;;;;;;;;;;;;;;;12.54;100.00;98809.88;5052815;28;826;-58
2023/04/25 17:40:56;;;;;;;;;;;;;;;12.57;100.00;98803.47;5052778;28;810;-57
2023/04/25 17:43:24;;;;;;;;;;;;;;;12.55;100.00;98806.69;5052763;28;818;-57
2023/04/25 17:45:51;;;;;;;;;;;;;;;12.53;100.00;98808.34;5052641;28;886;-58
2023/04/25 17:48:21;;;;;;;;;;;;;;;12.51;100.00;98816.31;5052564;28;1975;-57
2023/04/25 17:50:48;;;;;;;;;;;;;;;12.45;100.00;98819.63;5052660;28;834;-57
2023/04/25 17:53:15;;;;;;;;;;;;;;;12.37;100.00;98832.09;5053189;28;763;-57
2023/04/25 17:55:42;;;;;;;;;;;;;;;12.31;100.00;98844.97;5052754;28;850;-57
2023/04/25 17:58:12;;;;;;;;;;;;;;;12.23;100.00;98854.69;5053131;28;763;-57
2023/04/25 18:00:38;;;;;;;;;;;;;;;12.19;100.00;98863.09;5052322;28;857;-56
2023/04/25 18:03:06;;;;;;;;;;;;;;;12.15;100.00;98875.47;5052376;28;1043;-57
2023/04/25 18:05:32;;;;;;;;;;;;;;;12.03;100.00;98877.75;5052352;28;850;-57
2023/04/25 18:07:59;;;;;;;;;;;;;;;11.92;100.00;98882.00;5052283;28;1945;-55
2023/04/25 18:10:26;;;;;;;;;;;;;;;11.84;100.00;98876.59;5052352;28;1381;-56
2023/04/25 18:12:54;;;;;;;;;;;;;;;11.82;100.00;98876.25;5052314;28;818;-56
2023/04/25 18:15:21;;;;;;;;;;;;;;;11.81;100.00;98876.69;5052067;28;885;-59
2023/04/25 18:17:49;;;;;;;;;;;;;;;11.80;100.00;98872.38;5052133;28;838;-59
2023/04/25 18:20:16;;;;;;;;;;;;;;;11.77;100.00;98873.22;5052075;28;845;-59
2023/04/25 18:22:44;;;;;;;;;;;;;;;11.78;100.00;98866.50;5051964;28;783;-60
2023/04/25 18:25:12;;;;;;;;;;;;;;;11.76;100.00;98866.16;5052197;28;823;-60
2023/04/25 18:27:40;;;;;;;;;;;;;;;11.76;100.00;98874.44;5051933;28;1906;-62
2023/04/25 18:30:09;;;;;;;;;;;;;;;11.71;100.00;98883.25;5051793;28;829;-63
2023/04/25 18:32:36;;;;;;;;;;;;;;;11.67;100.00;98879.78;5051853;28;798;-63
2023/04/25 18:35:04;;;;;;;;;;;;;;;11.63;100.00;98882.66;5051851;28;904;-63
2023/04/25 18:37:30;;;;;;;;;;;;;;;11.60;100.00;98873.22;5051682;28;886;-62
2023/04/25 18:40:04;;;;;;;;;;;;;;;11.57;100.00;98878.84;5051792;28;909;-61
2023/04/25 18:42:31;;;;;;;;;;;;;;;11.50;100.00;98873.47;5051654;28;862;-62
2023/04/25 18:44:58;;;;;;;;;;;;;;;11.46;100.00;98868.03;5051737;28;822;-64
2023/04/25 18:47:25;;;;;;;;;;;;;;;11.47;100.00;98866.81;5051520;28;1902;-65
2023/04/25 18:49:52;;;;;;;;;;;;;;;11.43;100.00;98860.59;5051569;28;787;-64
2023/04/25 18:52:18;;;;;;;;;;;;;;;11.37;100.00;98848.47;5051608;28;885;-63
2023/04/25 18:54:45;;;;;;;;;;;;;;;11.29;100.00;98834.03;5051503;28;842;-64
2023/04/25 18:57:16;;;;;;;;;;;;;;;11.19;100.00;98824.00;5051480;28;791;-64
2023/04/25 18:59:44;;;;;;;;;;;;;;;11.04;100.00;98813.25;5050084;28;1176;-64
2023/04/25 19:02:14;;;;;;;;;;;;;;;10.97;100.00;98802.38;5051441;28;854;-64
2023/04/25 19:04:42;;;;;;;;;;;;;;;10.92;100.00;98799.31;5051533;28;865;-64
2023/04/25 19:07:09;;;;;;;;;;;;;;;10.87;100.00;98803.38;5050156;28;1886;-66
2023/04/25 19:09:35;;;;;;;;;;;;;;;10.80;100.00;98804.31;5051677;28;1005;-63
2023/04/25 19:12:02;;;;;;;;;;;;;;;10.77;100.00;98810.69;5051407;28;827;-65
2023/04/25 19:14:31;;;;;;;;;;;;;;;10.76;100.00;98806.38;5051469;28;914;-64
2023/04/25 19:16:58;;;;;;;;;;;;;;;10.73;100.00;98804.47;5051237;28;866;-65
2023/04/25 19:19:26;;;;;;;;;;;;;;;10.67;100.00;98797.91;5051562;28;874;-66
2023/04/25 19:21:53;;;;;;;;;;;;;;;10.64;100.00;98790.44;5051224;28;818;-65
2023/04/25 19:24:20;;;;;;;;;;;;;;;10.59;100.00;98779.91;5051285;28;885;-65
2023/04/25 19:26:48;;;;;;;;;;;;;;;10.52;100.00;98777.28;5051101;28;1975;-64
2023/04/25 19:29:15;;;;;;;;;;;;;;;10.45;100.00;98780.97;5051154;28;869;-64
2023/04/25 19:31:43;;;;;;;;;;;;;;;10.45;100.00;98791.25;5051213;28;803;-65
2023/04/25 19:34:11;;;;;;;;;;;;;;;10.52;100.00;98791.09;5051132;28;842;-65
2023/04/25 19:36:40;;;;;;;;;;;;;;;10.52;100.00;98800.19;5051449;28;850;-65
2023/04/25 19:39:07;;;;;;;;;;;;;;;10.55;100.00;98790.25;5051160;28;846;-65
2023/04/25 19:41:35;;;;;;;;;;;;;;;10.53;100.00;98798.19;5051211;28;795;-65
2023/04/25 19:44:06;;;;;;;;;;;;;;;10.57;100.00;98793.38;5051061;28;810;-65
2023/04/25 19:46:33;;;;;;;;;;;;;;;10.52;100.00;98796.63;5033058;28;1952;-64
2023/04/25 19:49:01;;;;;;;;;;;;;;;10.42;100.00;98787.38;5050993;28;799;-63
2023/04/25 19:51:28;;;;;;;;;;;;;;;10.49;100.00;98787.22;5051026;28;878;-63
2023/04/25 19:53:54;;;;;;;;;;;;;;;10.53;100.00;98787.13;5035980;28;1323;-63
2023/04/25 19:56:22;;;;;;;;;;;;;;;10.57;100.00;98787.84;5054693;28;892;-62
2023/04/25 19:58:49;;;;;;;;;;;;;;;10.61;100.00;98791.31;5054570;28;1164;-62
2023/04/25 20:01:17;;;;;;;;;;;;;;;10.68;100.00;98801.44;5054663;28;861;-62
2023/04/25 20:03:47;;;;;;;;;;;;;;;10.71;100.00;98809.66;5054656;28;830;-62
2023/04/25 20:06:13;;;;;;;;;;;;;;;10.78;100.00;98806.72;5054488;28;1885;-62
2023/04/25 20:08:41;;;;;;;;;;;;;;;10.74;100.00;98811.56;5036641;28;1306;-62
2023/04/25 20:11:08;;;;;;;;;;;;;;;10.66;100.00;98809.38;5054220;28;1269;-62
2023/04/25 20:13:34;;;;;;;;;;;;;;;10.60;100.00;98801.59;5054502;28;873;-62
2023/04/25 20:16:01;;;;;;;;;;;;;;;10.57;100.00;98807.19;5054401;28;799;-62
2023/04/25 20:18:28;;;;;;;;;;;;;;;10.55;100.00;98810.38;5054346;28;860;-62
2023/04/25 20:20:56;;;;;;;;;;;;;;;10.55;100.00;98807.59;5054353;28;799;-63
2023/04/25 20:23:23;;;;;;;;;;;;;;;10.53;100.00;98806.47;5054210;28;825;-63
2023/04/25 20:25:50;;;;;;;;;;;;;;;10.56;100.00;98802.84;5054183;28;886;-63
2023/04/25 20:28:17;;;;;;;;;;;;;;;10.62;100.00;98806.69;5053946;28;1973;-62
2023/04/25 20:30:45;;;;;;;;;;;;;;;10.66;100.00;98809.38;5054198;28;854;-63
2023/04/25 20:33:12;;;;;;;;;;;;;;;10.62;100.00;98807.47;5054097;28;806;-62
2023/04/25 20:35:39;;;;;;;;;;;;;;;10.55;100.00;98813.13;5054719;28;787;-62
2023/04/25 20:38:06;;;;;;;;;;;;;;;10.55;100.00;98817.88;5054292;28;836;-62
2023/04/25 20:40:33;;;;;;;;;;;;;;;10.52;100.00;98816.75;5054830;28;791;-62
2023/04/25 20:43:00;;;;;;;;;;;;;;;10.49;100.00;98817.59;5054678;28;784;-62
2023/04/25 20:45:30;;;;;;;;;;;;;;;10.48;100.00;98809.75;5054311;28;799;-62
2023/04/25 20:47:58;;;;;;;;;;;;;;;10.45;100.00;98819.66;5053759;28;1895;-62
2023/04/25 20:50:25;;;;;;;;;;;;;;;10.47;100.00;98808.19;5053730;28;806;-62
2023/04/25 20:52:52;;;;;;;;;;;;;;;10.45;100.00;98805.06;5053724;28;790;-62
2023/04/25 20:55:19;;;;;;;;;;;;;;;10.45;100.00;98802.31;5053951;28;889;-61
2023/04/25 20:57:46;;;;;;;;;;;;;;;10.45;100.00;98800.31;5053574;28;846;-61
2023/04/25 21:00:26;;;;;;;;;;;;;;;10.48;100.00;98802.25;5053595;28;783;-61
2023/04/25 21:02:53;;;;;;;;;;;;;;;10.50;100.00;98799.81;5052330;28;1200;-61
2023/04/25 21:05:23;;;;;;;;;;;;;;;10.49;100.00;98800.25;5052196;28;829;-61
2023/04/25 21:07:54;;;;;;;;;;;;;;;10.47;100.00;98802.66;5053340;28;1955;-61
2023/04/25 21:10:21;;;;;;;;;;;;;;;10.47;100.00;98799.91;5053520;28;1151;-61
2023/04/25 21:12:50;;;;;;;;;;;;;;;10.41;100.00;98791.31;5053432;28;855;-61
2023/04/25 21:15:21;;;;;;;;;;;;;;;10.33;100.00;98801.75;5053360;28;854;-61
2023/04/25 21:17:48;;;;;;;;;;;;;;;10.29;100.00;98797.47;5053269;28;873;-61
2023/04/25 21:20:19;;;;;;;;;;;;;;;10.27;100.00;98795.13;5053251;28;858;-61
2023/04/25 21:22:49;;;;;;;;;;;;;;;10.25;100.00;98792.00;5053201;28;778;-61
2023/04/25 21:25:23;;;;;;;;;;;;;;;10.19;100.00;98799.22;5053068;28;819;-61
2023/04/25 21:27:51;;;;;;;;;;;;;;;10.17;100.00;98796.88;5053186;28;2000;-61
2023/04/25 21:30:20;;;;;;;;;;;;;;;10.17;100.00;98798.88;5053096;28;873;-61
2023/04/25 21:32:47;;;;;;;;;;;;;;;10.17;100.00;98796.13;5052954;28;814;-61
2023/04/25 21:35:14;;;;;;;;;;;;;;;10.21;100.00;98794.06;5052980;28;873;-61
2023/04/25 21:37:40;;;;;;;;;;;;;;;10.23;100.00;98797.94;5052813;28;802;-61
2023/04/25 21:40:08;;;;;;;;;;;;;;;10.26;100.00;98799.06;5052885;28;802;-61
2023/04/25 21:42:35;;;;;;;;;;;;;;;10.27;100.00;98799.88;5052839;28;877;-61
2023/04/25 21:45:04;;;;;;;;;;;;;;;10.27;100.00;98795.13;5052693;28;962;-61
2023/04/25 21:47:31;;;;;;;;;;;;;;;10.25;100.00;98791.25;5052625;28;1953;-60
2023/04/25 21:49:57;;;;;;;;;;;;;;;10.19;100.00;98797.25;5052678;28;889;-60
2023/04/25 21:52:26;;;;;;;;;;;;;;;10.17;100.00;98804.41;5052484;28;846;-60
2023/04/25 21:54:52;;;;;;;;;;;;;;;10.13;100.00;98792.63;5052567;28;810;-60
2023/04/25 21:57:20;;;;;;;;;;;;;;;10.09;100.00;98801.00;5052391;28;1051;-60
2023/04/25 21:59:47;;;;;;;;;;;;;;;10.04;100.00;98800.72;5052449;28;798;-60
2023/04/25 22:02:14;;;;;;;;;;;;;;;10.00;100.00;98798.00;5052434;28;857;-60
2023/04/25 22:04:43;;;;;;;;;;;;;;;9.98;100.00;98797.66;5052335;28;795;-60
2023/04/25 22:07:11;;;;;;;;;;;;;;;9.98;100.00;98806.69;5050913;28;1943;-60
2023/04/25 22:09:38;;;;;;;;;;;;;;;9.94;100.00;98807.97;5052516;28;1056;-60
2023/04/25 22:12:05;;;;;;;;;;;;;;;9.91;100.00;98806.84;5052197;28;1359;-60
2023/04/25 22:14:31;;;;;;;;;;;;;;;9.91;100.00;98808.84;5052116;28;842;-60
2023/04/25 22:16:59;;;;;;;;;;;;;;;9.94;100.00;98803.25;5051766;28;839;-60
2023/04/25 22:19:27;;;;;;;;;;;;;;;9.93;100.00;98796.16;5052118;28;843;-60
2023/04/25 22:21:53;;;;;;;;;;;;;;;9.91;100.00;98795.81;5052036;28;886;-60
2023/04/25 22:24:20;;;;;;;;;;;;;;;9.89;100.00;98792.69;5052004;28;803;-60
2023/04/25 22:26:48;;;;;;;;;;;;;;;9.88;100.00;98785.63;5051804;28;1910;-60
2023/04/25 22:29:15;;;;;;;;;;;;;;;9.89;100.00;98789.16;5051896;28;866;-60
2023/04/25 22:31:42;;;;;;;;;;;;;;;9.88;100.00;98784.81;5033991;28;1209;-60
2023/04/25 22:34:09;;;;;;;;;;;;;;;9.88;100.00;98784.81;5051809;28;854;-60
2023/04/25 22:36:35;;;;;;;;;;;;;;;9.87;100.00;98781.28;5051831;28;830;-60
2023/04/25 22:39:02;;;;;;;;;;;;;;;9.87;100.00;98778.53;5051854;28;841;-60
2023/04/25 22:41:28;;;;;;;;;;;;;;;9.88;100.00;98782.06;5051715;28;846;-60
2023/04/25 22:43:55;;;;;;;;;;;;;;;9.88;100.00;98777.34;5051628;28;815;-60
2023/04/25 22:46:22;;;;;;;;;;;;;;;9.93;100.00;98782.34;5051829;28;1894;-60
2023/04/25 22:48:49;;;;;;;;;;;;;;;9.93;100.00;98773.31;5033809;28;1215;-60
2023/04/25 22:51:16;;;;;;;;;;;;;;;9.87;100.00;98775.75;5051559;28;867;-60
2023/04/25 22:53:44;;;;;;;;;;;;;;;9.79;100.00;98772.38;5051549;28;878;-60
2023/04/25 22:56:11;;;;;;;;;;;;;;;9.75;100.00;98773.63;5051627;28;811;-60
2023/04/25 22:58:41;;;;;;;;;;;;;;;9.69;100.00;98776.09;5051450;28;850;-60
2023/04/25 23:01:08;;;;;;;;;;;;;;;9.63;100.00;98777.78;5051520;28;869;-59
2023/04/25 23:03:34;;;;;;;;;;;;;;;9.65;100.00;98785.66;5051363;28;877;-60
2023/04/25 23:06:01;;;;;;;;;;;;;;;9.61;100.00;98791.22;5051434;28;862;-60
2023/04/25 23:08:28;;;;;;;;;;;;;;;9.56;100.00;98788.94;5033367;28;1886;-60
2023/04/25 23:10:55;;;;;;;;;;;;;;;9.49;100.00;98787.06;5051367;28;1264;-60
2023/04/25 23:13:22;;;;;;;;;;;;;;;9.46;100.00;98785.16;5051338;28;870;-60
2023/04/25 23:15:49;;;;;;;;;;;;;;;9.47;100.00;98788.69;5051411;28;881;-60
2023/04/25 23:18:15;;;;;;;;;;;;;;;9.45;100.00;98782.81;5051386;28;814;-60
2023/04/25 23:20:41;;;;;;;;;;;;;;;9.42;100.00;98778.16;5051293;28;819;-60
2023/04/25 23:23:08;;;;;;;;;;;;;;;9.33;100.00;98787.72;5051264;28;834;-60